sensor_id;sensor_type;location;lat;lon;timestamp;temperature;humidity
1411;DHT22;700;51.906;8.404;2022-10-16T00:01:29;16.90;99.90
1411;DHT22;700;51.906;8.404;2022-10-16T00:06:33;16.90;99.90
1411;DHT22;700;51.906;8.404;2022-10-16T00:11:36;16.80;99.90
1411;DHT22;700;51.906;8.404;2022-10-16T00:16:39;17.00;99.90
1411;DHT22;700;51.906;8.404;2022-10-16T00:21:40;17.00;99.90
1411;DHT22;700;51.906;8.404;2022-10-16T00:26:43;16.90;99.90
1411;DHT22;700;51.906;8.404;2022-10-16T00:31:44;16.80;99.90
1411;DHT22;700;51.906;8.404;2022-10-16T00:36:44;16.70;99.90
1411;DHT22;700;51.906;8.404;2022-10-16T00:41:47;16.50;99.90
1411;DHT22;700;51.906;8.404;2022-10-16T00:46:49;16.50;99.90
1411;DHT22;700;51.906;8.404;2022-10-16T00:51:53;16.60;99.90
1411;DHT22;700;51.906;8.404;2022-10-16T00:56:58;16.40;99.90
1411;DHT22;700;51.906;8.404;2022-10-16T01:02:00;16.30;99.90
1411;DHT22;700;51.906;8.404;2022-10-16T01:07:12;16.40;99.90
1411;DHT22;700;51.906;8.404;2022-10-16T01:12:41;16.50;99.90
1411;DHT22;700;51.906;8.404;2022-10-16T01:18:28;16.40;99.90
1411;DHT22;700;51.906;8.404;2022-10-16T01:28:55;16.60;99.90
1411;DHT22;700;51.906;8.404;2022-10-16T01:34:00;16.50;99.90
1411;DHT22;700;51.906;8.404;2022-10-16T01:39:03;16.60;99.90
1411;DHT22;700;51.906;8.404;2022-10-16T01:44:09;16.40;99.90
1411;DHT22;700;51.906;8.404;2022-10-16T01:49:13;16.40;99.90
1411;DHT22;700;51.906;8.404;2022-10-16T01:54:16;16.30;99.90
1411;DHT22;700;51.906;8.404;2022-10-16T01:59:20;16.10;99.90
1411;DHT22;700;51.906;8.404;2022-10-16T02:04:26;15.90;99.90
1411;DHT22;700;51.906;8.404;2022-10-16T02:09:30;16.00;99.90
1411;DHT22;700;51.906;8.404;2022-10-16T02:14:31;15.80;99.90
1411;DHT22;700;51.906;8.404;2022-10-16T02:19:34;15.90;99.90
1411;DHT22;700;51.906;8.404;2022-10-16T02:29:50;16.30;99.90
1411;DHT22;700;51.906;8.404;2022-10-16T02:35:01;16.30;99.90
1411;DHT22;700;51.906;8.404;2022-10-16T02:40:03;16.20;99.90
1411;DHT22;700;51.906;8.404;2022-10-16T02:45:09;16.30;99.90
1411;DHT22;700;51.906;8.404;2022-10-16T02:50:10;16.10;99.90
1411;DHT22;700;51.906;8.404;2022-10-16T02:55:10;16.00;99.90
1411;DHT22;700;51.906;8.404;2022-10-16T03:00:14;16.10;99.90
1411;DHT22;700;51.906;8.404;2022-10-16T03:05:17;16.00;99.90
1411;DHT22;700;51.906;8.404;2022-10-16T03:10:18;15.90;99.90
1411;DHT22;700;51.906;8.404;2022-10-16T03:15:18;15.80;99.90
1411;DHT22;700;51.906;8.404;2022-10-16T03:20:19;15.80;99.90
1411;DHT22;700;51.906;8.404;2022-10-16T03:25:22;15.70;99.90
1411;DHT22;700;51.906;8.404;2022-10-16T03:30:23;15.70;99.90
1411;DHT22;700;51.906;8.404;2022-10-16T03:35:24;15.80;99.90
1411;DHT22;700;51.906;8.404;2022-10-16T03:40:25;15.70;99.90
1411;DHT22;700;51.906;8.404;2022-10-16T03:45:26;15.70;99.90
1411;DHT22;700;51.906;8.404;2022-10-16T03:50:31;15.60;99.90
1411;DHT22;700;51.906;8.404;2022-10-16T03:55:35;15.60;99.90
1411;DHT22;700;51.906;8.404;2022-10-16T04:00:35;15.70;99.90
1411;DHT22;700;51.906;8.404;2022-10-16T04:05:39;15.60;99.90
1411;DHT22;700;51.906;8.404;2022-10-16T04:10:45;15.70;99.90
1411;DHT22;700;51.906;8.404;2022-10-16T04:15:45;15.90;99.90
1411;DHT22;700;51.906;8.404;2022-10-16T04:20:46;16.00;99.90
1411;DHT22;700;51.906;8.404;2022-10-16T04:25:47;15.90;99.90
1411;DHT22;700;51.906;8.404;2022-10-16T04:30:47;16.00;99.90
1411;DHT22;700;51.906;8.404;2022-10-16T04:35:48;16.00;99.90
1411;DHT22;700;51.906;8.404;2022-10-16T04:40:48;15.90;99.90
1411;DHT22;700;51.906;8.404;2022-10-16T04:45:51;16.10;99.90
1411;DHT22;700;51.906;8.404;2022-10-16T04:50:52;16.00;99.90
1411;DHT22;700;51.906;8.404;2022-10-16T04:55:55;15.90;99.90
1411;DHT22;700;51.906;8.404;2022-10-16T05:00:57;15.90;99.90
1411;DHT22;700;51.906;8.404;2022-10-16T05:06:00;16.00;99.90
1411;DHT22;700;51.906;8.404;2022-10-16T05:11:04;16.00;99.90
1411;DHT22;700;51.906;8.404;2022-10-16T05:16:07;15.90;99.90
1411;DHT22;700;51.906;8.404;2022-10-16T05:21:08;15.90;99.90
1411;DHT22;700;51.906;8.404;2022-10-16T05:26:09;15.90;99.90
1411;DHT22;700;51.906;8.404;2022-10-16T05:31:12;16.10;99.90
1411;DHT22;700;51.906;8.404;2022-10-16T05:36:17;15.80;99.90
1411;DHT22;700;51.906;8.404;2022-10-16T05:41:24;15.90;99.90
1411;DHT22;700;51.906;8.404;2022-10-16T05:46:26;15.80;99.90
1411;DHT22;700;51.906;8.404;2022-10-16T05:51:27;15.80;99.90
1411;DHT22;700;51.906;8.404;2022-10-16T05:56:27;15.80;99.90
1411;DHT22;700;51.906;8.404;2022-10-16T06:01:28;15.70;99.90
1411;DHT22;700;51.906;8.404;2022-10-16T06:06:34;15.80;99.90
1411;DHT22;700;51.906;8.404;2022-10-16T06:11:36;15.70;99.90
1411;DHT22;700;51.906;8.404;2022-10-16T06:16:37;15.70;99.90
1411;DHT22;700;51.906;8.404;2022-10-16T06:21:40;15.60;99.90
1411;DHT22;700;51.906;8.404;2022-10-16T06:26:43;15.60;99.90
1411;DHT22;700;51.906;8.404;2022-10-16T06:31:46;15.50;99.90
1411;DHT22;700;51.906;8.404;2022-10-16T06:36:49;15.70;99.90
1411;DHT22;700;51.906;8.404;2022-10-16T06:41:49;15.80;99.90
1411;DHT22;700;51.906;8.404;2022-10-16T06:46:50;15.90;99.90
1411;DHT22;700;51.906;8.404;2022-10-16T06:51:51;16.00;99.90
1411;DHT22;700;51.906;8.404;2022-10-16T06:56:54;15.90;99.90
1411;DHT22;700;51.906;8.404;2022-10-16T07:01:55;15.90;99.90
1411;DHT22;700;51.906;8.404;2022-10-16T07:07:00;15.90;99.90
1411;DHT22;700;51.906;8.404;2022-10-16T07:12:03;15.90;99.90
1411;DHT22;700;51.906;8.404;2022-10-16T07:17:04;16.10;99.90
1411;DHT22;700;51.906;8.404;2022-10-16T07:22:04;16.10;99.90
1411;DHT22;700;51.906;8.404;2022-10-16T07:27:05;16.20;99.90
1411;DHT22;700;51.906;8.404;2022-10-16T07:32:06;16.30;99.90
1411;DHT22;700;51.906;8.404;2022-10-16T07:37:14;16.40;99.90
1411;DHT22;700;51.906;8.404;2022-10-16T07:42:14;16.50;99.90
1411;DHT22;700;51.906;8.404;2022-10-16T07:47:15;16.70;99.90
1411;DHT22;700;51.906;8.404;2022-10-16T07:52:18;16.70;99.90
1411;DHT22;700;51.906;8.404;2022-10-16T07:57:18;17.00;99.90
1411;DHT22;700;51.906;8.404;2022-10-16T08:02:20;17.00;99.90
1411;DHT22;700;51.906;8.404;2022-10-16T08:07:21;16.90;99.90
1411;DHT22;700;51.906;8.404;2022-10-16T08:12:22;17.00;99.90
1411;DHT22;700;51.906;8.404;2022-10-16T08:17:25;17.20;99.90
1411;DHT22;700;51.906;8.404;2022-10-16T08:22:25;17.10;99.90
1411;DHT22;700;51.906;8.404;2022-10-16T08:27:36;17.80;99.90
1411;DHT22;700;51.906;8.404;2022-10-16T08:32:40;18.50;99.90
1411;DHT22;700;51.906;8.404;2022-10-16T08:37:44;19.00;99.90
1411;DHT22;700;51.906;8.404;2022-10-16T08:48:29;20.70;99.90
1411;DHT22;700;51.906;8.404;2022-10-16T08:53:36;21.20;99.90
1411;DHT22;700;51.906;8.404;2022-10-16T08:58:39;23.70;99.90
1411;DHT22;700;51.906;8.404;2022-10-16T09:04:03;26.80;99.90
1411;DHT22;700;51.906;8.404;2022-10-16T09:15:21;32.30;84.30
1411;DHT22;700;51.906;8.404;2022-10-16T09:20:27;32.80;70.00
1411;DHT22;700;51.906;8.404;2022-10-16T09:25:29;35.00;66.70
1411;DHT22;700;51.906;8.404;2022-10-16T09:30:33;37.90;56.30
1411;DHT22;700;51.906;8.404;2022-10-16T09:35:40;39.80;51.50
1411;DHT22;700;51.906;8.404;2022-10-16T09:40:46;36.80;49.20
1411;DHT22;700;51.906;8.404;2022-10-16T09:46:04;36.10;49.40
1411;DHT22;700;51.906;8.404;2022-10-16T09:51:18;37.90;47.10
1411;DHT22;700;51.906;8.404;2022-10-16T09:56:25;36.40;46.10
1411;DHT22;700;51.906;8.404;2022-10-16T10:01:45;30.90;52.10
1411;DHT22;700;51.906;8.404;2022-10-16T10:06:51;27.50;59.60
1411;DHT22;700;51.906;8.404;2022-10-16T10:11:57;27.70;61.90
1411;DHT22;700;51.906;8.404;2022-10-16T10:17:23;28.00;62.10
1411;DHT22;700;51.906;8.404;2022-10-16T10:22:44;28.60;62.40
1411;DHT22;700;51.906;8.404;2022-10-16T10:28:18;28.40;63.70
1411;DHT22;700;51.906;8.404;2022-10-16T10:33:47;27.50;64.80
1411;DHT22;700;51.906;8.404;2022-10-16T10:49:19;24.60;73.00
1411;DHT22;700;51.906;8.404;2022-10-16T10:54:34;23.80;79.70
1411;DHT22;700;51.906;8.404;2022-10-16T11:10:42;22.80;87.40
1411;DHT22;700;51.906;8.404;2022-10-16T11:15:47;22.00;92.00
1411;DHT22;700;51.906;8.404;2022-10-16T11:20:59;21.90;93.50
1411;DHT22;700;51.906;8.404;2022-10-16T11:26:05;22.00;94.90
1411;DHT22;700;51.906;8.404;2022-10-16T11:31:22;22.60;94.70
1411;DHT22;700;51.906;8.404;2022-10-16T11:36:44;23.50;94.20
1411;DHT22;700;51.906;8.404;2022-10-16T11:42:22;24.50;92.10
1411;DHT22;700;51.906;8.404;2022-10-16T11:52:33;24.80;90.00
1411;DHT22;700;51.906;8.404;2022-10-16T11:57:46;24.10;90.10
1411;DHT22;700;51.906;8.404;2022-10-16T12:08:16;23.00;91.30
1411;DHT22;700;51.906;8.404;2022-10-16T12:13:37;23.20;93.20
1411;DHT22;700;51.906;8.404;2022-10-16T12:18:40;23.00;93.90
1411;DHT22;700;51.906;8.404;2022-10-16T12:23:51;22.80;94.40
1411;DHT22;700;51.906;8.404;2022-10-16T12:28:53;23.10;94.40
1411;DHT22;700;51.906;8.404;2022-10-16T12:34:01;22.70;94.70
1411;DHT22;700;51.906;8.404;2022-10-16T12:39:05;22.40;95.50
1411;DHT22;700;51.906;8.404;2022-10-16T12:44:25;22.10;95.90
1411;DHT22;700;51.906;8.404;2022-10-16T12:49:38;22.10;96.40
1411;DHT22;700;51.906;8.404;2022-10-16T12:54:48;22.70;95.80
1411;DHT22;700;51.906;8.404;2022-10-16T13:31:58;25.60;86.80
1411;DHT22;700;51.906;8.404;2022-10-16T13:37:00;27.40;78.80
1411;DHT22;700;51.906;8.404;2022-10-16T13:42:13;28.00;78.40
1411;DHT22;700;51.906;8.404;2022-10-16T13:47:20;27.00;77.90
1411;DHT22;700;51.906;8.404;2022-10-16T13:52:21;27.70;79.60
1411;DHT22;700;51.906;8.404;2022-10-16T13:57:25;30.70;70.60
1411;DHT22;700;51.906;8.404;2022-10-16T14:02:31;31.90;63.90
1411;DHT22;700;51.906;8.404;2022-10-16T14:07:40;28.70;67.50
1411;DHT22;700;51.906;8.404;2022-10-16T14:12:42;27.00;72.70
1411;DHT22;700;51.906;8.404;2022-10-16T14:17:46;25.80;76.70
1411;DHT22;700;51.906;8.404;2022-10-16T14:22:58;25.30;79.40
1411;DHT22;700;51.906;8.404;2022-10-16T14:28:14;25.20;81.90
1411;DHT22;700;51.906;8.404;2022-10-16T14:38:24;25.10;83.40
1411;DHT22;700;51.906;8.404;2022-10-16T14:43:36;23.50;87.80
1411;DHT22;700;51.906;8.404;2022-10-16T14:48:43;22.90;90.50
1411;DHT22;700;51.906;8.404;2022-10-16T14:53:45;23.10;91.50
1411;DHT22;700;51.906;8.404;2022-10-16T14:58:47;23.40;91.80
1411;DHT22;700;51.906;8.404;2022-10-16T15:03:48;23.70;91.70
1411;DHT22;700;51.906;8.404;2022-10-16T15:08:55;23.70;91.00
1411;DHT22;700;51.906;8.404;2022-10-16T15:13:55;23.60;91.20
1411;DHT22;700;51.906;8.404;2022-10-16T15:18:56;23.60;91.00
1411;DHT22;700;51.906;8.404;2022-10-16T15:23:58;23.20;90.80
1411;DHT22;700;51.906;8.404;2022-10-16T15:28:59;23.00;91.30
1411;DHT22;700;51.906;8.404;2022-10-16T15:34:00;23.10;91.70
1411;DHT22;700;51.906;8.404;2022-10-16T15:39:06;22.60;92.40
1411;DHT22;700;51.906;8.404;2022-10-16T15:44:11;22.00;93.30
1411;DHT22;700;51.906;8.404;2022-10-16T15:49:16;21.90;94.20
1411;DHT22;700;51.906;8.404;2022-10-16T15:54:18;21.90;94.70
1411;DHT22;700;51.906;8.404;2022-10-16T15:59:22;21.80;95.20
1411;DHT22;700;51.906;8.404;2022-10-16T16:04:22;21.80;95.70
1411;DHT22;700;51.906;8.404;2022-10-16T16:09:26;21.90;96.80
1411;DHT22;700;51.906;8.404;2022-10-16T16:14:27;21.70;97.10
1411;DHT22;700;51.906;8.404;2022-10-16T16:19:30;21.40;99.60
1411;DHT22;700;51.906;8.404;2022-10-16T16:24:36;21.20;99.90
1411;DHT22;700;51.906;8.404;2022-10-16T16:29:37;21.20;99.90
1411;DHT22;700;51.906;8.404;2022-10-16T16:34:40;20.90;99.90
1411;DHT22;700;51.906;8.404;2022-10-16T16:39:40;20.70;99.90
1411;DHT22;700;51.906;8.404;2022-10-16T16:44:41;20.60;99.90
1411;DHT22;700;51.906;8.404;2022-10-16T16:49:42;20.40;99.90
1411;DHT22;700;51.906;8.404;2022-10-16T16:54:43;20.30;99.90
1411;DHT22;700;51.906;8.404;2022-10-16T16:59:45;20.10;99.90
1411;DHT22;700;51.906;8.404;2022-10-16T17:04:46;20.00;99.90
1411;DHT22;700;51.906;8.404;2022-10-16T17:09:46;20.10;99.90
1411;DHT22;700;51.906;8.404;2022-10-16T17:14:49;20.00;99.90
1411;DHT22;700;51.906;8.404;2022-10-16T17:19:51;19.90;99.90
1411;DHT22;700;51.906;8.404;2022-10-16T17:24:51;20.00;99.90
1411;DHT22;700;51.906;8.404;2022-10-16T17:29:56;20.10;99.90
1411;DHT22;700;51.906;8.404;2022-10-16T17:34:56;20.00;99.90
1411;DHT22;700;51.906;8.404;2022-10-16T17:39:57;19.90;99.90
1411;DHT22;700;51.906;8.404;2022-10-16T17:45:00;19.70;99.90
1411;DHT22;700;51.906;8.404;2022-10-16T17:50:03;19.60;99.90
1411;DHT22;700;51.906;8.404;2022-10-16T17:55:05;19.50;99.90
1411;DHT22;700;51.906;8.404;2022-10-16T18:00:06;19.40;99.90
1411;DHT22;700;51.906;8.404;2022-10-16T18:05:08;19.40;99.90
1411;DHT22;700;51.906;8.404;2022-10-16T18:10:09;19.50;99.90
1411;DHT22;700;51.906;8.404;2022-10-16T18:15:10;19.50;99.90
1411;DHT22;700;51.906;8.404;2022-10-16T18:20:11;19.40;99.90
1411;DHT22;700;51.906;8.404;2022-10-16T18:25:12;19.20;99.90
1411;DHT22;700;51.906;8.404;2022-10-16T18:30:12;19.20;99.90
1411;DHT22;700;51.906;8.404;2022-10-16T18:35:13;19.20;99.90
1411;DHT22;700;51.906;8.404;2022-10-16T18:40:16;19.20;99.90
1411;DHT22;700;51.906;8.404;2022-10-16T18:45:19;19.20;99.90
1411;DHT22;700;51.906;8.404;2022-10-16T18:50:21;19.20;99.90
1411;DHT22;700;51.906;8.404;2022-10-16T18:55:22;18.90;99.90
1411;DHT22;700;51.906;8.404;2022-10-16T19:00:24;18.90;99.90
1411;DHT22;700;51.906;8.404;2022-10-16T19:05:28;19.10;99.90
1411;DHT22;700;51.906;8.404;2022-10-16T19:10:29;19.10;99.90
1411;DHT22;700;51.906;8.404;2022-10-16T19:15:29;19.00;99.90
1411;DHT22;700;51.906;8.404;2022-10-16T19:20:31;18.70;99.90
1411;DHT22;700;51.906;8.404;2022-10-16T19:25:37;18.90;99.90
1411;DHT22;700;51.906;8.404;2022-10-16T19:30:42;18.90;99.90
1411;DHT22;700;51.906;8.404;2022-10-16T19:35:46;18.80;99.90
1411;DHT22;700;51.906;8.404;2022-10-16T19:40:49;18.80;99.90
1411;DHT22;700;51.906;8.404;2022-10-16T19:45:50;18.70;99.90
1411;DHT22;700;51.906;8.404;2022-10-16T19:50:53;18.70;99.90
1411;DHT22;700;51.906;8.404;2022-10-16T19:55:54;18.70;99.90
1411;DHT22;700;51.906;8.404;2022-10-16T20:00:57;18.80;99.90
1411;DHT22;700;51.906;8.404;2022-10-16T20:05:57;18.80;99.90
1411;DHT22;700;51.906;8.404;2022-10-16T20:11:09;18.80;99.90
1411;DHT22;700;51.906;8.404;2022-10-16T20:16:16;18.80;99.90
1411;DHT22;700;51.906;8.404;2022-10-16T20:21:25;18.90;99.90
1411;DHT22;700;51.906;8.404;2022-10-16T20:26:26;19.00;99.90
1411;DHT22;700;51.906;8.404;2022-10-16T20:31:31;18.80;99.90
1411;DHT22;700;51.906;8.404;2022-10-16T20:36:36;18.70;99.90
1411;DHT22;700;51.906;8.404;2022-10-16T20:41:37;18.80;99.90
1411;DHT22;700;51.906;8.404;2022-10-16T20:46:37;18.60;99.90
1411;DHT22;700;51.906;8.404;2022-10-16T20:51:38;18.60;99.90
1411;DHT22;700;51.906;8.404;2022-10-16T20:56:39;18.60;99.90
1411;DHT22;700;51.906;8.404;2022-10-16T21:01:42;18.20;99.90
1411;DHT22;700;51.906;8.404;2022-10-16T21:06:44;18.10;99.90
1411;DHT22;700;51.906;8.404;2022-10-16T21:11:45;18.10;99.90
1411;DHT22;700;51.906;8.404;2022-10-16T21:16:45;18.10;99.90
1411;DHT22;700;51.906;8.404;2022-10-16T21:21:46;18.20;99.90
1411;DHT22;700;51.906;8.404;2022-10-16T21:26:47;18.20;99.90
1411;DHT22;700;51.906;8.404;2022-10-16T21:31:47;18.30;99.90
1411;DHT22;700;51.906;8.404;2022-10-16T21:36:50;18.30;99.90
1411;DHT22;700;51.906;8.404;2022-10-16T21:41:51;18.30;99.90
1411;DHT22;700;51.906;8.404;2022-10-16T21:46:52;18.30;99.90
1411;DHT22;700;51.906;8.404;2022-10-16T21:51:52;18.30;99.90
1411;DHT22;700;51.906;8.404;2022-10-16T21:56:53;18.20;99.90
1411;DHT22;700;51.906;8.404;2022-10-16T22:01:56;18.10;99.90
1411;DHT22;700;51.906;8.404;2022-10-16T22:06:57;18.00;99.90
1411;DHT22;700;51.906;8.404;2022-10-16T22:12:00;17.90;99.90
1411;DHT22;700;51.906;8.404;2022-10-16T22:17:01;17.80;99.90
1411;DHT22;700;51.906;8.404;2022-10-16T22:22:04;17.70;99.90
1411;DHT22;700;51.906;8.404;2022-10-16T22:27:04;17.80;99.90
1411;DHT22;700;51.906;8.404;2022-10-16T22:32:07;17.70;99.90
1411;DHT22;700;51.906;8.404;2022-10-16T22:37:12;17.80;99.90
1411;DHT22;700;51.906;8.404;2022-10-16T22:42:15;17.70;99.90
1411;DHT22;700;51.906;8.404;2022-10-16T22:47:16;17.70;99.90
1411;DHT22;700;51.906;8.404;2022-10-16T22:52:19;17.70;99.90
1411;DHT22;700;51.906;8.404;2022-10-16T22:57:19;17.70;99.90
1411;DHT22;700;51.906;8.404;2022-10-16T23:02:20;17.60;99.90
1411;DHT22;700;51.906;8.404;2022-10-16T23:07:21;17.50;99.90
1411;DHT22;700;51.906;8.404;2022-10-16T23:12:21;17.50;99.90
1411;DHT22;700;51.906;8.404;2022-10-16T23:17:27;17.30;99.90
1411;DHT22;700;51.906;8.404;2022-10-16T23:22:28;17.20;99.90
1411;DHT22;700;51.906;8.404;2022-10-16T23:27:28;17.20;99.90
1411;DHT22;700;51.906;8.404;2022-10-16T23:32:29;17.20;99.90
1411;DHT22;700;51.906;8.404;2022-10-16T23:37:29;17.20;99.90
1411;DHT22;700;51.906;8.404;2022-10-16T23:42:30;17.20;99.90
1411;DHT22;700;51.906;8.404;2022-10-16T23:47:31;17.20;99.90
1411;DHT22;700;51.906;8.404;2022-10-16T23:52:33;17.10;99.90
1411;DHT22;700;51.906;8.404;2022-10-16T23:57:34;17.10;99.90
